Hiram, GA (30141)

7:19 PM EST on December 22, 2014 (GMT -0500)
Powder Springs, GA | Change Station
CLOSE
Current Station
Personal Weather Station
Location: Powder Springs, GA
Elevation: 985 ft
Nearby Weather Stations

Elev 985 ft 33.89 °N, 84.67 °W | Updated 2 seconds ago

Rain
Rain
43.5 °F
Feels Like 44 °F
N
0.0
Wind Variable Wind from ENE
Gusts 1.0 mph

Today
High -- | Low -- °F
--% Chance of Precip.
Yesterday
High -- | Low -- °F
Precip. -- in
7:40 AM 5:34 PM
New Moon, 1% visible
Pressure 29.89 in
Visibility 7.0 miles
Clouds Overcast 300 ft
Windchill 44 °F
Dew Point 42 °F
Humidity 93%
Rainfall 0.32 in
Snow Depth Not available.
UV 0 out of 12
Pollen 1.40 out of 12
Air Quality Not available.
Flu Activity Not available.
METAR KPUJ 222355Z AUTO 14006KT 7SM RA OVC003 07/07 A2989 RMK AO2

More Conditions Fewer Conditions

Pressure 29.89 in
Visibility 7.0 miles
Clouds Overcast 300 ft
Windchill 44 °F
Dew Point 42 °F
Humidity 93%
Rainfall 0.32 in
Snow Depth Not available.
UV 0 out of 12
Pollen 1.40 out of 12
Air Quality Not available.
Flu Activity Not available.
METAR KPUJ 222355Z AUTO 14006KT 7SM RA OVC003 07/07 A2989 RMK AO2

More Conditions Fewer Conditions

10-Day Weather Forecast

Almanac

Astronomy

Dec. 22, 2014 Rise Set
Actual Time
Civil Twilight
Nautical Twilight
Astronomical Twilight
Moon
Length of Visible Light
Length of Day
Tomorrow will be .
, % of the Moon is Illuminated

Today's Extremes

State Highs State Lows

Community

WunderPhotos

Upload Photos

1,779,736 photos uploaded!

WunderBlogs® & News

Nearby

Air Quality

  Air Quality AQ Index Pollutant
Not available.

Snow Depth

Station Depth Elevation

Earthquake Activity

City Distance Mag. Time & Date
Minimum magnitude displayed is 2.5.

Coastal Water Temperatures

Place Temperature

Nearby Weather Stations